sensor_id;sensor_type;location;lat;lon;timestamp;pressure;altitude;pressure_sealevel;temperature;humidity
74975;BME280;64061;50.836;19.138;2022-10-22T00:01:02;98296.47;;;22.31;55.36
74975;BME280;64061;50.836;19.138;2022-10-22T00:04:12;98302.28;;;22.30;55.23
74975;BME280;64061;50.836;19.138;2022-10-22T00:07:17;98307.97;;;22.33;55.16
74975;BME280;64061;50.836;19.138;2022-10-22T00:10:20;98298.09;;;22.32;55.18
74975;BME280;64061;50.836;19.138;2022-10-22T00:13:24;98285.16;;;22.33;55.26
74975;BME280;64061;50.836;19.138;2022-10-22T00:16:27;98289.03;;;22.32;55.24
74975;BME280;64061;50.836;19.138;2022-10-22T00:19:30;98289.03;;;22.32;55.34
74975;BME280;64061;50.836;19.138;2022-10-22T00:22:35;98286.28;;;22.32;55.50
74975;BME280;64061;50.836;19.138;2022-10-22T00:25:38;98279.97;;;22.31;55.50
74975;BME280;64061;50.836;19.138;2022-10-22T00:28:42;98288.22;;;22.31;55.45
74975;BME280;64061;50.836;19.138;2022-10-22T00:31:45;98271.22;;;22.29;55.21
74975;BME280;64061;50.836;19.138;2022-10-22T00:34:50;98274.28;;;22.28;55.52
74975;BME280;64061;50.836;19.138;2022-10-22T00:37:55;98271.22;;;22.29;55.27
74975;BME280;64061;50.836;19.138;2022-10-22T00:40:58;98280.59;;;22.28;55.19
74975;BME280;64061;50.836;19.138;2022-10-22T00:44:07;98268.78;;;22.28;55.10
74975;BME280;64061;50.836;19.138;2022-10-22T00:47:27;98264.91;;;22.29;55.18
74975;BME280;64061;50.836;19.138;2022-10-22T00:50:37;98263.81;;;22.30;55.26
74975;BME280;64061;50.836;19.138;2022-10-22T00:53:47;98269.28;;;22.30;55.18
74975;BME280;64061;50.836;19.138;2022-10-22T00:56:54;98278.97;;;22.27;55.20
74975;BME280;64061;50.836;19.138;2022-10-22T00:59:57;98266.03;;;22.28;55.05
74975;BME280;64061;50.836;19.138;2022-10-22T01:03:01;98262.47;;;22.27;55.19
74975;BME280;64061;50.836;19.138;2022-10-22T01:06:05;98256.97;;;22.27;55.29
74975;BME280;64061;50.836;19.138;2022-10-22T01:09:15;98258.59;;;22.28;55.48
74975;BME280;64061;50.836;19.138;2022-10-22T01:12:35;98256.97;;;22.27;55.13
74975;BME280;64061;50.836;19.138;2022-10-22T01:15:50;98270.50;;;22.24;55.07
74975;BME280;64061;50.836;19.138;2022-10-22T01:19:17;98264.72;;;22.25;55.00
74975;BME280;64061;50.836;19.138;2022-10-22T01:22:43;98271.16;;;22.21;55.01
74975;BME280;64061;50.836;19.138;2022-10-22T01:26:03;98266.16;;;22.23;54.82
74975;BME280;64061;50.836;19.138;2022-10-22T01:29:15;98270.03;;;22.22;54.93
74975;BME280;64061;50.836;19.138;2022-10-22T01:32:24;98264.84;;;22.20;54.68
74975;BME280;64061;50.836;19.138;2022-10-22T01:35:31;98264.53;;;22.22;54.95
74975;BME280;64061;50.836;19.138;2022-10-22T01:38:40;98275.53;;;22.22;54.86
74975;BME280;64061;50.836;19.138;2022-10-22T01:41:45;98274.72;;;22.21;54.91
74975;BME280;64061;50.836;19.138;2022-10-22T01:44:49;98278.28;;;22.22;55.05
74975;BME280;64061;50.836;19.138;2022-10-22T01:47:57;98270.03;;;22.22;54.94
74975;BME280;64061;50.836;19.138;2022-10-22T01:51:21;98264.53;;;22.22;54.97
74975;BME280;64061;50.836;19.138;2022-10-22T01:54:40;98251.72;;;22.17;55.09
74975;BME280;64061;50.836;19.138;2022-10-22T01:58:01;98241.53;;;22.18;54.88
74975;BME280;64061;50.836;19.138;2022-10-22T02:01:24;98236.88;;;22.18;54.95
74975;BME280;64061;50.836;19.138;2022-10-22T02:04:40;98245.63;;;22.20;54.77
74975;BME280;64061;50.836;19.138;2022-10-22T02:07:53;98255.78;;;22.20;55.00
74975;BME280;64061;50.836;19.138;2022-10-22T02:11:02;98254.16;;;22.19;54.62
74975;BME280;64061;50.836;19.138;2022-10-22T02:14:08;98251.13;;;22.20;54.79
74975;BME280;64061;50.836;19.138;2022-10-22T02:17:18;98244.50;;;22.21;54.81
74975;BME280;64061;50.836;19.138;2022-10-22T02:20:27;98242.06;;;22.20;54.95
74975;BME280;64061;50.836;19.138;2022-10-22T02:23:31;98246.75;;;22.19;54.74
74975;BME280;64061;50.836;19.138;2022-10-22T02:26:39;98248.06;;;22.22;54.63
74975;BME280;64061;50.836;19.138;2022-10-22T02:29:53;98255.47;;;22.21;54.95
74975;BME280;64061;50.836;19.138;2022-10-22T02:33:08;98256.59;;;22.20;54.94
74975;BME280;64061;50.836;19.138;2022-10-22T02:36:18;98261.91;;;22.17;55.07
74975;BME280;64061;50.836;19.138;2022-10-22T02:39:24;98250.91;;;22.17;54.86
74975;BME280;64061;50.836;19.138;2022-10-22T02:42:28;98255.59;;;22.16;54.69
74975;BME280;64061;50.836;19.138;2022-10-22T02:45:33;98247.34;;;22.16;54.80
74975;BME280;64061;50.836;19.138;2022-10-22T02:48:38;98237.16;;;22.17;54.82
74975;BME280;64061;50.836;19.138;2022-10-22T02:51:41;98228.94;;;22.17;54.65
74975;BME280;64061;50.836;19.138;2022-10-22T02:54:45;98239.09;;;22.16;54.66
74975;BME280;64061;50.836;19.138;2022-10-22T02:57:48;98241.53;;;22.18;54.87
74975;BME280;64061;50.836;19.138;2022-10-22T03:00:51;98237.97;;;22.17;54.62
74975;BME280;64061;50.836;19.138;2022-10-22T03:03:56;98256.41;;;22.17;54.14
74975;BME280;64061;50.836;19.138;2022-10-22T03:06:59;98257.53;;;22.16;54.63
74975;BME280;64061;50.836;19.138;2022-10-22T03:10:03;98266.88;;;22.15;54.75
74975;BME280;64061;50.836;19.138;2022-10-22T03:13:07;98267.19;;;22.13;54.63
74975;BME280;64061;50.836;19.138;2022-10-22T03:16:11;98271.88;;;22.13;54.55
74975;BME280;64061;50.836;19.138;2022-10-22T03:19:15;98269.94;;;22.13;54.46
74975;BME280;64061;50.836;19.138;2022-10-22T03:22:21;98270.25;;;22.12;54.67
74975;BME280;64061;50.836;19.138;2022-10-22T03:25:27;98260.06;;;22.12;54.81
74975;BME280;64061;50.836;19.138;2022-10-22T03:28:33;98252.13;;;22.11;54.46
74975;BME280;64061;50.836;19.138;2022-10-22T03:31:37;98250.19;;;22.11;54.65
74975;BME280;64061;50.836;19.138;2022-10-22T03:34:41;98244.41;;;22.13;54.52
74975;BME280;64061;50.836;19.138;2022-10-22T03:37:45;98245.50;;;22.12;54.69
74975;BME280;64061;50.836;19.138;2022-10-22T03:40:48;98236.47;;;22.11;54.72
74975;BME280;64061;50.836;19.138;2022-10-22T03:43:53;98238.09;;;22.12;55.04
74975;BME280;64061;50.836;19.138;2022-10-22T03:46:58;98241.97;;;22.11;54.76
74975;BME280;64061;50.836;19.138;2022-10-22T03:50:06;98249.06;;;22.12;54.51
74975;BME280;64061;50.836;19.138;2022-10-22T03:53:10;98256.84;;;22.10;54.29
74975;BME280;64061;50.836;19.138;2022-10-22T03:56:13;98276.38;;;22.09;54.76
74975;BME280;64061;50.836;19.138;2022-10-22T03:59:16;98275.25;;;22.10;54.63
74975;BME280;64061;50.836;19.138;2022-10-22T04:02:20;98263.75;;;22.08;54.38
74975;BME280;64061;50.836;19.138;2022-10-22T04:05:24;98260.72;;;22.09;54.49
74975;BME280;64061;50.836;19.138;2022-10-22T04:08:28;98249.72;;;22.09;54.59
74975;BME280;64061;50.836;19.138;2022-10-22T04:11:31;98254.41;;;22.09;54.67
74975;BME280;64061;50.836;19.138;2022-10-22T04:14:34;98252.13;;;22.11;54.40
74975;BME280;64061;50.836;19.138;2022-10-22T04:17:38;98237.28;;;22.12;54.43
74975;BME280;64061;50.836;19.138;2022-10-22T04:20:43;98238.91;;;22.13;54.54
74975;BME280;64061;50.836;19.138;2022-10-22T04:23:49;98222.41;;;22.13;54.31
74975;BME280;64061;50.836;19.138;2022-10-22T04:26:54;98221.59;;;22.12;54.58
74975;BME280;64061;50.836;19.138;2022-10-22T04:29:57;98222.41;;;22.13;54.36
74975;BME280;64061;50.836;19.138;2022-10-22T04:33:01;98230.16;;;22.11;54.24
74975;BME280;64061;50.836;19.138;2022-10-22T04:36:07;98224.66;;;22.11;54.49
74975;BME280;64061;50.836;19.138;2022-10-22T04:39:13;98225.81;;;22.10;54.58
74975;BME280;64061;50.836;19.138;2022-10-22T04:42:17;98219.81;;;22.08;54.31
74975;BME280;64061;50.836;19.138;2022-10-22T04:45:20;98226.13;;;22.08;54.33
74975;BME280;64061;50.836;19.138;2022-10-22T04:48:23;98212.38;;;22.08;54.40
74975;BME280;64061;50.836;19.138;2022-10-22T04:51:28;98217.56;;;22.10;54.24
74975;BME280;64061;50.836;19.138;2022-10-22T04:54:31;98219.00;;;22.07;54.40
74975;BME280;64061;50.836;19.138;2022-10-22T04:57:35;98212.06;;;22.10;54.17
74975;BME280;64061;50.836;19.138;2022-10-22T05:00:38;98201.91;;;22.10;54.73
74975;BME280;64061;50.836;19.138;2022-10-22T05:03:43;98212.88;;;22.10;54.71
74975;BME280;64061;50.836;19.138;2022-10-22T05:06:48;98202.69;;;22.11;56.70
74975;BME280;64061;50.836;19.138;2022-10-22T05:09:52;98215.50;;;22.15;57.72
74975;BME280;64061;50.836;19.138;2022-10-22T05:12:55;98216.31;;;22.16;58.13
74975;BME280;64061;50.836;19.138;2022-10-22T05:16:00;98217.44;;;22.15;58.13
74975;BME280;64061;50.836;19.138;2022-10-22T05:19:04;98214.19;;;22.13;57.81
74975;BME280;64061;50.836;19.138;2022-10-22T05:22:11;98214.19;;;22.13;57.82
74975;BME280;64061;50.836;19.138;2022-10-22T05:25:15;98223.53;;;22.12;57.90
74975;BME280;64061;50.836;19.138;2022-10-22T05:28:18;98234.22;;;22.13;57.89
74975;BME280;64061;50.836;19.138;2022-10-22T05:31:22;98212.75;;;22.15;57.79
74975;BME280;64061;50.836;19.138;2022-10-22T05:34:26;98220.38;;;22.18;58.99
74975;BME280;64061;50.836;19.138;2022-10-22T05:37:30;98211.22;;;22.23;59.62
74975;BME280;64061;50.836;19.138;2022-10-22T05:40:34;98207.31;;;22.24;59.87
74975;BME280;64061;50.836;19.138;2022-10-22T05:43:37;98231.13;;;22.28;59.76
74975;BME280;64061;50.836;19.138;2022-10-22T05:46:41;98254.94;;;22.33;59.68
74975;BME280;64061;50.836;19.138;2022-10-22T05:49:45;98254.50;;;22.39;59.38
74975;BME280;64061;50.836;19.138;2022-10-22T05:52:49;98262.13;;;22.43;58.98
74975;BME280;64061;50.836;19.138;2022-10-22T05:55:52;98262.94;;;22.43;58.74
74975;BME280;64061;50.836;19.138;2022-10-22T05:58:56;98257.94;;;22.45;58.27
74975;BME280;64061;50.836;19.138;2022-10-22T06:01:59;98264.47;;;22.49;58.23
74975;BME280;64061;50.836;19.138;2022-10-22T06:05:03;98266.56;;;22.52;57.96
74975;BME280;64061;50.836;19.138;2022-10-22T06:08:10;98257.19;;;22.53;57.63
74975;BME280;64061;50.836;19.138;2022-10-22T06:11:21;98254.28;;;22.50;57.67
74975;BME280;64061;50.836;19.138;2022-10-22T06:14:26;98265.28;;;22.50;57.59
74975;BME280;64061;50.836;19.138;2022-10-22T06:17:30;98267.69;;;22.51;57.16
74975;BME280;64061;50.836;19.138;2022-10-22T06:20:33;98258.53;;;22.56;56.89
74975;BME280;64061;50.836;19.138;2022-10-22T06:23:38;98268.66;;;22.69;56.33
74975;BME280;64061;50.836;19.138;2022-10-22T06:26:42;98281.88;;;22.81;55.95
74975;BME280;64061;50.836;19.138;2022-10-22T06:29:46;98283.06;;;22.88;55.65
74975;BME280;64061;50.836;19.138;2022-10-22T06:32:52;98287.91;;;22.91;55.36
74975;BME280;64061;50.836;19.138;2022-10-22T06:36:03;98292.00;;;22.94;55.06
74975;BME280;64061;50.836;19.138;2022-10-22T06:39:11;98295.69;;;22.89;55.25
74975;BME280;64061;50.836;19.138;2022-10-22T06:42:15;98306.19;;;22.87;54.97
74975;BME280;64061;50.836;19.138;2022-10-22T06:45:22;98307.63;;;22.85;54.81
74975;BME280;64061;50.836;19.138;2022-10-22T06:48:25;98328.81;;;22.84;55.11
74975;BME280;64061;50.836;19.138;2022-10-22T06:51:29;98330.13;;;22.87;55.55
74975;BME280;64061;50.836;19.138;2022-10-22T06:54:33;98332.56;;;22.88;56.07
74975;BME280;64061;50.836;19.138;2022-10-22T06:57:36;98344.56;;;22.92;56.34
74975;BME280;64061;50.836;19.138;2022-10-22T07:00:42;98337.63;;;22.95;56.85
74975;BME280;64061;50.836;19.138;2022-10-22T07:03:48;98333.94;;;22.99;56.85
74975;BME280;64061;50.836;19.138;2022-10-22T07:06:53;98326.50;;;23.00;56.63
74975;BME280;64061;50.836;19.138;2022-10-22T07:09:58;98333.34;;;23.02;56.73
74975;BME280;64061;50.836;19.138;2022-10-22T07:13:01;98330.25;;;23.04;56.60
74975;BME280;64061;50.836;19.138;2022-10-22T07:16:06;98323.31;;;23.06;55.92
74975;BME280;64061;50.836;19.138;2022-10-22T07:19:10;98319.75;;;23.06;56.12
74975;BME280;64061;50.836;19.138;2022-10-22T07:22:14;98310.88;;;23.09;55.86
74975;BME280;64061;50.836;19.138;2022-10-22T07:25:18;98299.25;;;23.12;55.62
74975;BME280;64061;50.836;19.138;2022-10-22T07:28:22;98309.63;;;23.15;55.82
74975;BME280;64061;50.836;19.138;2022-10-22T07:31:26;98311.13;;;22.99;50.65
74975;BME280;64061;50.836;19.138;2022-10-22T07:34:29;98308.81;;;22.07;47.43
74975;BME280;64061;50.836;19.138;2022-10-22T07:37:32;98309.25;;;21.26;47.93
74975;BME280;64061;50.836;19.138;2022-10-22T07:40:37;98310.22;;;20.66;48.14
74975;BME280;64061;50.836;19.138;2022-10-22T07:43:41;98292.03;;;20.13;48.15
74975;BME280;64061;50.836;19.138;2022-10-22T07:46:44;98304.31;;;19.73;48.80
74975;BME280;64061;50.836;19.138;2022-10-22T07:49:49;98315.06;;;19.41;49.33
74975;BME280;64061;50.836;19.138;2022-10-22T07:52:53;98317.53;;;19.13;49.64
74975;BME280;64061;50.836;19.138;2022-10-22T07:56:00;98330.81;;;18.91;50.02
74975;BME280;64061;50.836;19.138;2022-10-22T07:59:04;98323.84;;;18.75;50.48
74975;BME280;64061;50.836;19.138;2022-10-22T08:02:08;98327.22;;;18.62;50.42
74975;BME280;64061;50.836;19.138;2022-10-22T08:05:12;98325.31;;;18.52;50.89
74975;BME280;64061;50.836;19.138;2022-10-22T08:08:15;98314.19;;;18.43;50.62
74975;BME280;64061;50.836;19.138;2022-10-22T08:11:20;98310.16;;;18.36;51.07
74975;BME280;64061;50.836;19.138;2022-10-22T08:14:23;98311.53;;;18.33;50.87
74975;BME280;64061;50.836;19.138;2022-10-22T08:17:27;98311.00;;;18.31;51.44
74975;BME280;64061;50.836;19.138;2022-10-22T08:20:30;98300.63;;;18.28;50.99
74975;BME280;64061;50.836;19.138;2022-10-22T08:23:33;98315.38;;;18.27;51.13
74975;BME280;64061;50.836;19.138;2022-10-22T08:26:38;98318.66;;;18.29;50.99
74975;BME280;64061;50.836;19.138;2022-10-22T08:29:42;98329.31;;;18.26;50.85
74975;BME280;64061;50.836;19.138;2022-10-22T08:32:45;98317.91;;;18.19;51.16
74975;BME280;64061;50.836;19.138;2022-10-22T08:35:52;98316.28;;;18.12;51.14
74975;BME280;64061;50.836;19.138;2022-10-22T08:38:56;98323.66;;;18.12;51.20
74975;BME280;64061;50.836;19.138;2022-10-22T08:42:05;98330.75;;;18.13;51.22
74975;BME280;64061;50.836;19.138;2022-10-22T08:45:24;98322.59;;;18.08;51.30
74975;BME280;64061;50.836;19.138;2022-10-22T08:48:42;98332.94;;;18.11;51.47
74975;BME280;64061;50.836;19.138;2022-10-22T08:51:48;98331.88;;;18.07;51.50
74975;BME280;64061;50.836;19.138;2022-10-22T08:54:54;98331.88;;;18.07;51.76
74975;BME280;64061;50.836;19.138;2022-10-22T08:58:07;98335.66;;;18.11;51.44
74975;BME280;64061;50.836;19.138;2022-10-22T09:01:25;98335.16;;;18.09;51.87
74975;BME280;64061;50.836;19.138;2022-10-22T09:04:38;98325.00;;;18.14;51.53
74975;BME280;64061;50.836;19.138;2022-10-22T09:07:50;98338.66;;;18.14;51.47
74975;BME280;64061;50.836;19.138;2022-10-22T09:10:57;98336.72;;;18.20;50.97
74975;BME280;64061;50.836;19.138;2022-10-22T09:14:09;98341.63;;;18.23;51.22
74975;BME280;64061;50.836;19.138;2022-10-22T09:17:26;98337.22;;;18.27;51.46
74975;BME280;64061;50.836;19.138;2022-10-22T09:20:44;98340.50;;;18.29;51.27
74975;BME280;64061;50.836;19.138;2022-10-22T09:24:01;98338.84;;;18.33;51.31
74975;BME280;64061;50.836;19.138;2022-10-22T09:27:10;98335.56;;;18.36;51.32
74975;BME280;64061;50.836;19.138;2022-10-22T09:30:18;98330.88;;;18.42;51.23
74975;BME280;64061;50.836;19.138;2022-10-22T09:33:25;98338.78;;;18.43;51.35
74975;BME280;64061;50.836;19.138;2022-10-22T09:36:31;98342.59;;;18.47;51.18
74975;BME280;64061;50.836;19.138;2022-10-22T09:39:37;98349.41;;;18.45;51.30
74975;BME280;64061;50.836;19.138;2022-10-22T09:42:44;98352.72;;;18.42;51.19
74975;BME280;64061;50.836;19.138;2022-10-22T09:45:55;98357.06;;;18.43;51.20
74975;BME280;64061;50.836;19.138;2022-10-22T09:49:02;98362.25;;;18.44;51.25
74975;BME280;64061;50.836;19.138;2022-10-22T09:52:26;98357.06;;;18.48;51.11
74975;BME280;64061;50.836;19.138;2022-10-22T09:55:32;98362.28;;;18.39;51.19
74975;BME280;64061;50.836;19.138;2022-10-22T09:58:43;98358.44;;;18.45;51.27
74975;BME280;64061;50.836;19.138;2022-10-22T10:01:57;98363.63;;;18.47;51.27
74975;BME280;64061;50.836;19.138;2022-10-22T10:05:25;98358.44;;;18.45;51.51
74975;BME280;64061;50.836;19.138;2022-10-22T10:08:30;98359.81;;;18.43;51.30
74975;BME280;64061;50.836;19.138;2022-10-22T10:11:39;98357.91;;;18.43;51.54
74975;BME280;64061;50.836;19.138;2022-10-22T10:14:54;98355.44;;;18.42;51.54
74975;BME280;64061;50.836;19.138;2022-10-22T10:18:13;98359.28;;;18.41;51.44
74975;BME280;64061;50.836;19.138;2022-10-22T10:21:33;98352.16;;;18.40;51.58
74975;BME280;64061;50.836;19.138;2022-10-22T10:24:59;98347.28;;;18.37;51.75
74975;BME280;64061;50.836;19.138;2022-10-22T10:28:24;98354.13;;;18.34;51.78
74975;BME280;64061;50.836;19.138;2022-10-22T10:31:44;98348.13;;;18.32;52.35
74975;BME280;64061;50.836;19.138;2022-10-22T10:35:16;98352.44;;;18.38;52.36
74975;BME280;64061;50.836;19.138;2022-10-22T10:38:33;98347.28;;;18.37;52.17
74975;BME280;64061;50.836;19.138;2022-10-22T10:41:50;98344.31;;;18.33;52.22
74975;BME280;64061;50.836;19.138;2022-10-22T10:45:08;98337.75;;;18.34;51.75
74975;BME280;64061;50.836;19.138;2022-10-22T10:48:30;98340.16;;;18.41;52.33
74975;BME280;64061;50.836;19.138;2022-10-22T10:51:49;98342.59;;;18.42;51.90
74975;BME280;64061;50.836;19.138;2022-10-22T10:55:09;98349.97;;;18.42;51.98
74975;BME280;64061;50.836;19.138;2022-10-22T10:58:24;98346.47;;;18.36;52.14
74975;BME280;64061;50.836;19.138;2022-10-22T11:01:41;98354.66;;;18.36;51.77
74975;BME280;64061;50.836;19.138;2022-10-22T11:05:14;98350.25;;;18.40;51.94
74975;BME280;64061;50.836;19.138;2022-10-22T11:08:33;98350.53;;;18.39;52.20
74975;BME280;64061;50.836;19.138;2022-10-22T11:11:45;98349.16;;;18.41;51.86
74975;BME280;64061;50.836;19.138;2022-10-22T11:14:58;98351.63;;;18.43;52.11
74975;BME280;64061;50.836;19.138;2022-10-22T11:18:17;98345.06;;;18.44;52.36
74975;BME280;64061;50.836;19.138;2022-10-22T11:21:30;98338.25;;;18.41;52.47
74975;BME280;64061;50.836;19.138;2022-10-22T11:24:46;98334.16;;;18.39;52.45
74975;BME280;64061;50.836;19.138;2022-10-22T11:27:58;98335.78;;;18.40;52.63
74975;BME280;64061;50.836;19.138;2022-10-22T11:31:14;98330.59;;;18.38;52.59
74975;BME280;64061;50.836;19.138;2022-10-22T11:34:20;98332.28;;;18.34;52.79
74975;BME280;64061;50.836;19.138;2022-10-22T11:37:35;98331.22;;;18.30;53.06
74975;BME280;64061;50.836;19.138;2022-10-22T11:40:49;98328.75;;;18.29;52.81
74975;BME280;64061;50.836;19.138;2022-10-22T11:44:07;98328.47;;;18.30;53.09
74975;BME280;64061;50.836;19.138;2022-10-22T11:47:17;98333.69;;;18.27;53.34
74975;BME280;64061;50.836;19.138;2022-10-22T11:50:24;98336.41;;;18.27;53.24
74975;BME280;64061;50.836;19.138;2022-10-22T11:53:31;98327.13;;;18.28;53.32
74975;BME280;64061;50.836;19.138;2022-10-22T11:56:37;98312.09;;;18.30;53.03
74975;BME280;64061;50.836;19.138;2022-10-22T11:59:47;98314.81;;;18.35;53.39
74975;BME280;64061;50.836;19.138;2022-10-22T12:03:01;98312.09;;;18.30;53.06
74975;BME280;64061;50.836;19.138;2022-10-22T12:06:17;98328.00;;;18.23;53.07
74975;BME280;64061;50.836;19.138;2022-10-22T12:09:24;98322.53;;;18.18;53.56
74975;BME280;64061;50.836;19.138;2022-10-22T12:12:35;98321.38;;;18.29;53.18
74975;BME280;64061;50.836;19.138;2022-10-22T12:15:46;98327.38;;;18.31;53.26
74975;BME280;64061;50.836;19.138;2022-10-22T12:18:56;98327.94;;;18.28;53.29
74975;BME280;64061;50.836;19.138;2022-10-22T12:22:12;98319.22;;;18.26;53.24
74975;BME280;64061;50.836;19.138;2022-10-22T12:25:22;98321.16;;;18.21;53.44
74975;BME280;64061;50.836;19.138;2022-10-22T12:28:28;98317.63;;;18.15;53.50
74975;BME280;64061;50.836;19.138;2022-10-22T12:31:35;98310.00;;;18.12;53.65
74975;BME280;64061;50.836;19.138;2022-10-22T12:34:44;98311.09;;;18.11;53.71
74975;BME280;64061;50.836;19.138;2022-10-22T12:37:55;98312.78;;;18.07;53.89
74975;BME280;64061;50.836;19.138;2022-10-22T12:41:00;98311.69;;;18.03;54.25
74975;BME280;64061;50.836;19.138;2022-10-22T12:44:05;98302.97;;;18.01;53.95
74975;BME280;64061;50.836;19.138;2022-10-22T12:47:12;98308.16;;;18.02;54.37
74975;BME280;64061;50.836;19.138;2022-10-22T12:50:19;98288.50;;;18.00;53.90
74975;BME280;64061;50.836;19.138;2022-10-22T12:53:32;98291.56;;;18.38;54.12
74975;BME280;64061;50.836;19.138;2022-10-22T12:56:38;98301.28;;;18.93;53.12
74975;BME280;64061;50.836;19.138;2022-10-22T12:59:45;98300.28;;;19.42;52.49
74975;BME280;64061;50.836;19.138;2022-10-22T13:02:51;98301.00;;;19.76;51.75
74975;BME280;64061;50.836;19.138;2022-10-22T13:05:55;98296.28;;;20.06;51.57
74975;BME280;64061;50.836;19.138;2022-10-22T13:09:07;98305.19;;;20.35;50.98
74975;BME280;64061;50.836;19.138;2022-10-22T13:12:23;98301.34;;;20.55;51.00
74975;BME280;64061;50.836;19.138;2022-10-22T13:15:35;98305.19;;;20.73;50.25
74975;BME280;64061;50.836;19.138;2022-10-22T13:18:41;98301.19;;;20.84;50.38
74975;BME280;64061;50.836;19.138;2022-10-22T13:21:47;98294.91;;;20.97;50.46
74975;BME280;64061;50.836;19.138;2022-10-22T13:24:51;98294.75;;;21.07;50.30
74975;BME280;64061;50.836;19.138;2022-10-22T13:27:55;98302.78;;;21.17;50.22
74975;BME280;64061;50.836;19.138;2022-10-22T13:31:10;98312.53;;;21.28;49.97
74975;BME280;64061;50.836;19.138;2022-10-22T13:34:19;98312.13;;;21.35;49.95
74975;BME280;64061;50.836;19.138;2022-10-22T13:37:25;98315.59;;;21.41;49.89
74975;BME280;64061;50.836;19.138;2022-10-22T13:40:31;98308.06;;;21.46;49.73
74975;BME280;64061;50.836;19.138;2022-10-22T13:43:34;98300.56;;;21.52;49.64
74975;BME280;64061;50.836;19.138;2022-10-22T13:46:39;98299.31;;;21.58;49.74
74975;BME280;64061;50.836;19.138;2022-10-22T13:49:44;98299.25;;;21.63;49.44
74975;BME280;64061;50.836;19.138;2022-10-22T13:52:50;98299.16;;;21.68;49.59
74975;BME280;64061;50.836;19.138;2022-10-22T13:55:55;98309.84;;;21.69;49.27
74975;BME280;64061;50.836;19.138;2022-10-22T13:58:59;98300.16;;;21.72;49.40
74975;BME280;64061;50.836;19.138;2022-10-22T14:02:08;98304.72;;;21.77;49.44
74975;BME280;64061;50.836;19.138;2022-10-22T14:05:15;98311.03;;;21.77;49.21
74975;BME280;64061;50.836;19.138;2022-10-22T14:08:21;98315.41;;;21.78;49.42
74975;BME280;64061;50.836;19.138;2022-10-22T14:11:27;98313.19;;;21.80;49.37
74975;BME280;64061;50.836;19.138;2022-10-22T14:14:32;98312.59;;;21.83;49.20
74975;BME280;64061;50.836;19.138;2022-10-22T14:17:37;98310.31;;;21.85;49.29
74975;BME280;64061;50.836;19.138;2022-10-22T14:20:44;98324.56;;;21.87;49.16
74975;BME280;64061;50.836;19.138;2022-10-22T14:23:47;98325.06;;;21.89;49.06
74975;BME280;64061;50.836;19.138;2022-10-22T14:26:52;98319.28;;;21.91;49.08
74975;BME280;64061;50.836;19.138;2022-10-22T14:29:55;98308.81;;;21.93;49.24
74975;BME280;64061;50.836;19.138;2022-10-22T14:33:08;98314.50;;;21.96;49.12
74975;BME280;64061;50.836;19.138;2022-10-22T14:36:17;98321.13;;;21.95;49.19
74975;BME280;64061;50.836;19.138;2022-10-22T14:42:24;98320.00;;;21.96;48.94
74975;BME280;64061;50.836;19.138;2022-10-22T14:45:27;98321.59;;;21.97;49.11
74975;BME280;64061;50.836;19.138;2022-10-22T14:48:32;98321.31;;;21.99;49.22
74975;BME280;64061;50.836;19.138;2022-10-22T14:51:35;98321.31;;;21.99;49.11
74975;BME280;64061;50.836;19.138;2022-10-22T14:54:39;98318.28;;;22.00;49.10
74975;BME280;64061;50.836;19.138;2022-10-22T14:57:43;98319.09;;;22.01;49.14
74975;BME280;64061;50.836;19.138;2022-10-22T15:00:46;98314.94;;;22.03;49.22
74975;BME280;64061;50.836;19.138;2022-10-22T15:03:51;98319.81;;;22.07;49.19
74975;BME280;64061;50.836;19.138;2022-10-22T15:06:54;98308.81;;;22.07;49.33
74975;BME280;64061;50.836;19.138;2022-10-22T15:09:57;98311.56;;;22.07;49.28
74975;BME280;64061;50.836;19.138;2022-10-22T15:13:01;98329.38;;;22.09;49.35
74975;BME280;64061;50.836;19.138;2022-10-22T15:16:05;98313.72;;;22.10;49.36
74975;BME280;64061;50.836;19.138;2022-10-22T15:19:11;98318.06;;;22.11;49.38
74975;BME280;64061;50.836;19.138;2022-10-22T15:22:15;98316.47;;;22.10;49.65
74975;BME280;64061;50.836;19.138;2022-10-22T15:25:20;98323.56;;;22.11;50.05
74975;BME280;64061;50.836;19.138;2022-10-22T15:28:24;98323.56;;;22.11;50.24
74975;BME280;64061;50.836;19.138;2022-10-22T15:31:47;98317.66;;;22.17;50.00
74975;BME280;64061;50.836;19.138;2022-10-22T15:34:54;98310.63;;;22.11;50.79
74975;BME280;64061;50.836;19.138;2022-10-22T15:37:59;98318.88;;;22.11;51.00
74975;BME280;64061;50.836;19.138;2022-10-22T15:41:04;98323.56;;;22.11;51.11
74975;BME280;64061;50.836;19.138;2022-10-22T15:44:13;98330.69;;;22.12;51.61
74975;BME280;64061;50.836;19.138;2022-10-22T15:47:19;98336.81;;;22.09;51.45
74975;BME280;64061;50.836;19.138;2022-10-22T15:50:25;98336.81;;;22.09;51.65
74975;BME280;64061;50.836;19.138;2022-10-22T15:53:29;98331.91;;;22.06;51.96
74975;BME280;64061;50.836;19.138;2022-10-22T15:56:32;98340.16;;;22.06;51.72
74975;BME280;64061;50.836;19.138;2022-10-22T15:59:35;98341.28;;;22.04;52.24
74975;BME280;64061;50.836;19.138;2022-10-22T16:02:38;98357.75;;;22.04;52.42
74975;BME280;64061;50.836;19.138;2022-10-22T16:05:50;98359.91;;;22.08;52.57
74975;BME280;64061;50.836;19.138;2022-10-22T16:08:56;98358.88;;;22.03;53.17
74975;BME280;64061;50.836;19.138;2022-10-22T16:12:01;98360.81;;;22.03;53.12
74975;BME280;64061;50.836;19.138;2022-10-22T16:15:06;98360.81;;;22.03;53.24
74975;BME280;64061;50.836;19.138;2022-10-22T16:18:10;98366.31;;;22.03;53.37
74975;BME280;64061;50.836;19.138;2022-10-22T16:21:15;98371.78;;;22.03;53.30
74975;BME280;64061;50.836;19.138;2022-10-22T16:24:19;98370.97;;;22.02;53.48